Time;durP1;ratioP1;P1;durP2;ratioP2;P2;SDS_P1;SDS_P2;PMS_P1;PMS_P2;Temp;Humidity;BMP_temperature;BMP_pressure;BME280_temperature;BME280_humidity;BME280_pressure;Samples;Min_cycle;Max_cycle;Signal;HPM_P1;HPM_P2
2021/11/23 00:00:36;;;;;;;25.75;24.15;;;3.30;87.60;;;;;;5071718;28;20199;-72
2021/11/23 00:03:04;;;;;;;62.35;27.13;;;3.30;86.80;;;;;;5075663;28;20696;-72
2021/11/23 00:05:33;;;;;;;24.95;23.45;;;3.30;87.50;;;;;;5079978;28;20230;-72
2021/11/23 00:07:59;;;;;;;25.05;23.05;;;3.30;89.90;;;;;;5071447;28;20227;-72
2021/11/23 00:10:27;;;;;;;23.80;22.35;;;3.30;90.20;;;;;;5071839;28;20306;-72
2021/11/23 00:12:54;;;;;;;23.10;21.80;;;3.30;89.00;;;;;;5070339;28;20231;-72
2021/11/23 00:15:21;;;;;;;23.73;22.33;;;3.20;88.70;;;;;;5071345;28;20238;-72
2021/11/23 00:17:48;;;;;;;24.38;22.80;;;3.10;88.80;;;;;;5070333;28;20239;-72
2021/11/23 00:20:16;;;;;;;24.95;23.35;;;3.10;88.30;;;;;;5075937;28;20202;-72
2021/11/23 00:22:43;;;;;;;24.98;23.33;;;3.10;88.50;;;;;;5075062;28;20227;-72
2021/11/23 00:25:10;;;;;;;25.15;23.25;;;3.10;88.60;;;;;;5082134;28;20202;-72
2021/11/23 00:27:37;;;;;;;26.15;24.30;;;3.10;88.80;;;;;;5068412;28;20283;-72
2021/11/23 00:30:05;;;;;;;23.70;22.30;;;3.00;91.00;;;;;;5071307;28;20203;-72
2021/11/23 00:32:32;;;;;;;24.90;23.50;;;3.00;89.80;;;;;;5072858;28;20218;-72
2021/11/23 00:34:59;;;;;;;25.45;23.80;;;3.00;89.10;;;;;;5080772;28;20270;-72
2021/11/23 00:37:27;;;;;;;24.33;22.92;;;3.00;88.80;;;;;;5077987;28;20193;-72
2021/11/23 00:39:56;;;;;;;24.75;23.20;;;3.00;88.60;;;;;;5070431;28;20224;-72
2021/11/23 00:42:24;;;;;;;24.95;23.45;;;2.90;89.00;;;;;;5071670;28;20407;-72
2021/11/23 00:44:51;;;;;;;24.23;22.70;;;2.90;89.00;;;;;;5069723;28;20223;-72
2021/11/23 00:47:18;;;;;;;24.80;23.25;;;2.90;89.30;;;;;;5072242;28;20239;-72
2021/11/23 00:49:45;;;;;;;25.20;23.60;;;2.90;89.50;;;;;;5070895;28;20390;-72
2021/11/23 00:52:12;;;;;;;25.17;23.48;;;3.00;88.50;;;;;;5075314;28;20263;-72
2021/11/23 00:54:41;;;;;;;24.73;23.23;;;3.00;88.00;;;;;;5073887;28;20219;-72
2021/11/23 00:57:08;;;;;;;25.20;23.65;;;3.00;87.90;;;;;;5081016;28;20282;-72
2021/11/23 00:59:37;;;;;;;24.83;23.13;;;2.90;88.00;;;;;;5080057;28;20283;-72
2021/11/23 01:02:04;;;;;;;26.23;23.73;;;2.80;88.70;;;;;;5074656;28;20203;-72
2021/11/23 01:04:31;;;;;;;24.45;22.85;;;2.70;90.10;;;;;;5073951;28;20310;-72
2021/11/23 01:06:58;;;;;;;24.50;23.10;;;2.60;92.10;;;;;;5072742;28;20282;-72
2021/11/23 01:09:25;;;;;;;172.77;38.13;;;2.60;91.10;;;;;;5069519;28;20211;-72
2021/11/23 01:11:54;;;;;;;26.08;24.10;;;2.60;91.40;;;;;;5072974;28;20260;-72
2021/11/23 01:14:21;;;;;;;24.80;23.17;;;2.50;92.30;;;;;;5085655;28;20305;-72
2021/11/23 01:16:49;;;;;;;25.05;23.42;;;2.40;91.30;;;;;;5078149;28;20197;-72
2021/11/23 01:19:16;;;;;;;25.63;24.13;;;2.30;90.90;;;;;;5073467;28;20207;-72
2021/11/23 01:21:43;;;;;;;25.17;23.38;;;2.30;90.80;;;;;;5074640;28;20306;-72
2021/11/23 01:24:11;;;;;;;25.73;24.13;;;2.20;90.90;;;;;;5081738;28;20759;-72
2021/11/23 01:26:41;;;;;;;24.20;22.73;;;2.30;90.90;;;;;;5069738;28;20653;-72
2021/11/23 01:29:10;;;;;;;24.33;22.75;;;2.20;91.90;;;;;;5069636;28;20223;-71
2021/11/23 01:31:37;;;;;;;23.95;22.45;;;2.10;91.60;;;;;;5073033;28;20215;-72
2021/11/23 01:34:04;;;;;;;24.65;23.10;;;2.10;94.30;;;;;;5072766;28;20275;-72
2021/11/23 01:36:32;;;;;;;25.50;23.80;;;2.10;92.70;;;;;;5077160;28;20198;-72
2021/11/23 01:38:59;;;;;;;25.25;23.65;;;2.10;92.80;;;;;;5072449;28;20284;-72
2021/11/23 01:41:26;;;;;;;26.20;24.60;;;2.00;91.90;;;;;;5072663;28;20388;-72
2021/11/23 01:43:53;;;;;;;27.77;25.75;;;2.00;91.80;;;;;;5068754;28;20301;-72
2021/11/23 01:46:21;;;;;;;26.25;24.60;;;2.00;91.40;;;;;;5073647;28;20282;-72
2021/11/23 01:48:48;;;;;;;26.48;24.85;;;2.10;91.50;;;;;;5073505;28;20607;-72
2021/11/23 01:51:16;;;;;;;26.42;24.67;;;2.10;91.40;;;;;;5069640;28;20786;-72
2021/11/23 01:53:43;;;;;;;25.77;24.20;;;2.20;90.20;;;;;;5068839;28;20302;-72
2021/11/23 01:56:10;;;;;;;27.70;25.95;;;2.30;89.20;;;;;;5068446;28;20660;-72
2021/11/23 01:58:37;;;;;;;26.15;24.55;;;2.50;87.70;;;;;;5085909;28;20700;-72
2021/11/23 02:01:06;;;;;;;24.73;23.23;;;2.50;86.90;;;;;;5070675;28;20231;-72
2021/11/23 02:03:35;;;;;;;24.88;23.27;;;2.60;86.60;;;;;;5073595;28;20301;-72
2021/11/23 02:06:03;;;;;;;26.08;24.48;;;2.50;86.90;;;;;;5080195;28;20290;-72
2021/11/23 02:08:30;;;;;;;25.05;23.55;;;2.40;87.10;;;;;;5070446;28;20234;-72
2021/11/23 02:10:57;;;;;;;25.52;23.83;;;2.40;87.00;;;;;;5072641;28;20235;-72
2021/11/23 02:13:25;;;;;;;26.38;24.60;;;2.40;86.90;;;;;;5070635;28;20270;-72
2021/11/23 02:15:53;;;;;;;26.42;24.83;;;2.40;87.20;;;;;;5068869;28;20253;-72
2021/11/23 02:18:23;;;;;;;24.90;23.40;;;2.20;88.30;;;;;;5069573;28;20290;-72
2021/11/23 02:20:52;;;;;;;24.83;23.23;;;2.20;88.70;;;;;;5069272;28;20665;-72
2021/11/23 02:23:20;;;;;;;25.90;24.30;;;2.10;89.10;;;;;;5077428;28;20264;-72
2021/11/23 02:25:48;;;;;;;25.33;23.75;;;2.00;89.30;;;;;;5073961;28;20313;-72
2021/11/23 02:28:16;;;;;;;26.48;24.75;;;2.00;89.30;;;;;;5072275;28;20241;-72
2021/11/23 02:30:45;;;;;;;26.17;24.58;;;2.00;89.10;;;;;;5071354;28;20188;-72
2021/11/23 02:33:13;;;;;;;25.80;24.02;;;2.00;90.20;;;;;;5069459;28;20234;-72
2021/11/23 02:35:40;;;;;;;25.00;23.40;;;2.00;89.70;;;;;;5080837;28;20286;-71
2021/11/23 02:38:08;;;;;;;25.58;24.08;;;2.00;89.70;;;;;;5074059;28;20207;-72
2021/11/23 02:40:35;;;;;;;26.80;25.13;;;1.90;90.40;;;;;;5073753;28;20210;-71
2021/11/23 02:43:02;;;;;;;25.33;23.65;;;1.80;90.30;;;;;;5070808;28;20269;-72
2021/11/23 02:45:30;;;;;;;25.60;23.90;;;1.70;90.50;;;;;;5068400;28;20690;-72
2021/11/23 02:47:58;;;;;;;26.48;24.67;;;1.60;91.00;;;;;;5076866;28;20281;-72
2021/11/23 02:50:26;;;;;;;26.52;24.63;;;1.60;91.20;;;;;;5070772;28;20289;-72
2021/11/23 02:52:54;;;;;;;26.73;24.80;;;1.60;91.40;;;;;;5078576;28;20237;-72
2021/11/23 02:55:24;;;;;;;26.60;24.90;;;1.60;91.60;;;;;;5078426;28;20213;-72
2021/11/23 02:57:51;;;;;;;25.70;24.00;;;1.60;91.70;;;;;;5072818;28;20553;-72
2021/11/23 03:00:24;;;;;;;29.85;26.35;;;1.60;93.20;;;;;;5078604;28;20703;-72
2021/11/23 03:02:52;;;;;;;26.00;24.30;;;1.60;92.50;;;;;;5082615;28;21214;-72
2021/11/23 03:05:21;;;;;;;26.65;24.95;;;1.60;92.80;;;;;;5069310;28;20230;-72
2021/11/23 03:07:49;;;;;;;26.15;24.33;;;1.70;92.00;;;;;;5068909;28;20713;-72
2021/11/23 03:10:17;;;;;;;27.67;25.80;;;1.80;90.60;;;;;;5076408;28;20646;-72
2021/11/23 03:12:49;;;;;;;28.27;26.35;;;1.80;90.00;;;;;;5073173;28;20330;-71
2021/11/23 03:15:16;;;;;;;28.35;26.45;;;1.80;89.50;;;;;;5078735;28;20653;-72
2021/11/23 03:17:44;;;;;;;27.10;25.40;;;1.80;89.10;;;;;;5078075;28;20208;-72
2021/11/23 03:20:13;;;;;;;27.08;25.30;;;1.80;89.50;;;;;;5072286;28;20282;-72
2021/11/23 03:22:40;;;;;;;29.48;27.58;;;1.80;89.40;;;;;;5072713;28;20708;-72
2021/11/23 03:25:08;;;;;;;27.30;25.35;;;1.80;89.60;;;;;;5071185;28;20956;-72
2021/11/23 03:27:35;;;;;;;27.73;25.83;;;1.90;89.30;;;;;;5071765;28;20264;-71
2021/11/23 03:30:07;;;;;;;26.70;24.98;;;1.80;88.90;;;;;;5072393;28;20202;-72
2021/11/23 03:32:34;;;;;;;26.48;24.83;;;1.80;89.10;;;;;;5072115;28;20301;-72
2021/11/23 03:35:03;;;;;;;27.77;25.98;;;1.80;88.70;;;;;;5071540;28;20747;-72
2021/11/23 03:37:30;;;;;;;25.92;24.40;;;1.90;88.60;;;;;;5073382;28;22173;-72
2021/11/23 03:39:57;;;;;;;27.00;25.30;;;1.80;89.60;;;;;;5074296;28;20230;-72
2021/11/23 03:42:25;;;;;;;27.10;25.13;;;1.70;89.90;;;;;;5083877;28;20636;-71
2021/11/23 03:44:58;;;;;;;1501.57;215.25;;;1.70;89.50;;;;;;5072378;28;20314;-71
2021/11/23 03:47:28;;;;;;;27.23;25.33;;;1.70;90.80;;;;;;5075422;28;20203;-72
2021/11/23 03:49:55;;;;;;;27.42;25.63;;;1.70;92.50;;;;;;5084679;28;20210;-72
2021/11/23 03:52:23;;;;;;;28.63;26.73;;;1.70;91.20;;;;;;5085998;28;20256;-72
2021/11/23 03:54:50;;;;;;;26.65;24.90;;;1.60;90.50;;;;;;5073478;28;20210;-72
2021/11/23 03:57:17;;;;;;;27.70;25.98;;;1.50;90.60;;;;;;5079220;28;20227;-71
2021/11/23 03:59:47;;;;;;;27.15;25.45;;;1.40;90.90;;;;;;5071967;28;20290;-72
2021/11/23 04:02:14;;;;;;;1999.90;462.60;;;1.40;90.80;;;;;;5088305;28;20198;-72
2021/11/23 04:04:43;;;;;;;27.80;25.98;;;1.40;94.60;;;;;;5077998;28;20249;-72
2021/11/23 04:07:10;;;;;;;28.75;26.73;;;1.30;95.30;;;;;;5080544;28;20682;-71
2021/11/23 04:09:37;;;;;;;29.98;28.08;;;1.30;94.00;;;;;;5070152;28;20226;-71
2021/11/23 04:12:04;;;;;;;28.02;26.02;;;1.20;93.10;;;;;;5079225;28;20307;-72
2021/11/23 04:14:31;;;;;;;29.20;27.13;;;1.20;92.70;;;;;;5087927;28;20282;-72
2021/11/23 04:16:58;;;;;;;29.65;27.58;;;1.10;92.30;;;;;;5069690;28;20557;-71
2021/11/23 04:19:25;;;;;;;28.70;26.70;;;1.00;92.50;;;;;;5071054;28;20779;-72
2021/11/23 04:21:54;;;;;;;28.05;26.13;;;1.00;92.50;;;;;;5070730;28;20194;-71
2021/11/23 04:24:21;;;;;;;29.40;27.20;;;1.10;92.20;;;;;;5070416;28;20278;-72
2021/11/23 04:26:48;;;;;;;28.60;26.75;;;1.00;93.20;;;;;;5071546;28;20268;-72
2021/11/23 04:29:15;;;;;;;27.88;25.95;;;1.00;93.00;;;;;;5078069;28;20290;-72
2021/11/23 04:31:42;;;;;;;29.35;27.25;;;0.90;93.00;;;;;;5075151;28;20233;-71
2021/11/23 04:34:08;;;;;;;29.10;27.20;;;1.00;92.90;;;;;;5076653;28;20220;-72
2021/11/23 04:36:36;;;;;;;29.73;27.48;;;0.90;92.50;;;;;;5079855;28;20708;-71
2021/11/23 04:39:07;;;;;;;30.10;28.00;;;0.80;92.50;;;;;;5071067;28;20210;-72
2021/11/23 04:41:34;;;;;;;30.83;28.10;;;0.80;92.60;;;;;;5078981;28;20193;-71
2021/11/23 04:44:02;;;;;;;30.40;28.10;;;0.80;92.90;;;;;;5078802;28;20253;-72
2021/11/23 04:46:29;;;;;;;31.55;28.83;;;0.80;93.10;;;;;;5070996;28;20550;-71
2021/11/23 04:48:56;;;;;;;49.40;30.88;;;0.80;95.00;;;;;;5075690;28;20274;-71
2021/11/23 04:51:23;;;;;;;155.02;41.95;;;0.80;94.30;;;;;;5070833;28;20285;-72
2021/11/23 04:53:50;;;;;;;29.42;27.40;;;0.80;94.90;;;;;;5070145;28;20317;-71
2021/11/23 04:56:19;;;;;;;28.85;26.95;;;0.80;94.70;;;;;;5075558;28;20197;-72
2021/11/23 04:58:46;;;;;;;29.85;27.85;;;0.90;94.40;;;;;;5084977;28;20280;-71
2021/11/23 05:01:13;;;;;;;29.27;27.27;;;0.90;93.90;;;;;;5085766;28;20281;-72
2021/11/23 05:03:40;;;;;;;31.10;29.00;;;0.90;93.60;;;;;;5072885;28;20219;-71
2021/11/23 05:06:07;;;;;;;29.67;27.58;;;0.80;93.30;;;;;;5085075;28;20277;-71
2021/11/23 05:08:34;;;;;;;29.98;27.88;;;0.80;93.10;;;;;;5071596;28;20237;-71
2021/11/23 05:11:01;;;;;;;30.25;28.02;;;0.80;93.40;;;;;;5069992;28;20569;-72
2021/11/23 05:13:29;;;;;;;245.88;46.97;;;0.80;94.30;;;;;;5069244;28;20300;-72
2021/11/23 05:15:56;;;;;;;30.20;28.20;;;0.80;95.10;;;;;;5069236;28;20222;-71
2021/11/23 05:18:24;;;;;;;32.30;29.90;;;0.80;94.50;;;;;;5084774;28;20317;-71
2021/11/23 05:20:51;;;;;;;31.58;29.42;;;0.80;93.90;;;;;;5078233;28;20192;-71
2021/11/23 05:23:18;;;;;;;30.85;28.55;;;0.90;93.80;;;;;;5086119;28;20300;-72
2021/11/23 05:25:45;;;;;;;32.63;30.10;;;0.80;93.20;;;;;;5071163;28;20282;-72
2021/11/23 05:28:12;;;;;;;29.70;27.70;;;0.90;93.00;;;;;;5081874;28;20247;-71
2021/11/23 05:30:40;;;;;;;33.40;31.00;;;0.90;92.40;;;;;;5071788;28;20206;-72
2021/11/23 05:33:07;;;;;;;31.40;29.00;;;0.90;92.40;;;;;;5076486;28;20233;-72
2021/11/23 05:35:35;;;;;;;1204.13;170.60;;;0.90;92.10;;;;;;5082012;28;20230;-71
2021/11/23 05:38:02;;;;;;;32.15;29.83;;;0.90;94.20;;;;;;5070246;28;20642;-71
2021/11/23 05:40:28;;;;;;;33.15;30.63;;;1.00;93.50;;;;;;5074079;28;20220;-71
2021/11/23 05:42:55;;;;;;;33.00;30.63;;;1.00;93.40;;;;;;5082068;28;20308;-71
2021/11/23 05:45:22;;;;;;;30.52;28.30;;;0.90;93.00;;;;;;5069263;28;20226;-71
2021/11/23 05:47:51;;;;;;;31.02;28.90;;;0.90;92.30;;;;;;5068301;28;20289;-71
2021/11/23 05:50:18;;;;;;;32.30;30.13;;;0.90;92.00;;;;;;5070656;28;20202;-72
2021/11/23 05:52:45;;;;;;;31.27;29.02;;;0.90;91.70;;;;;;5079559;28;20305;-72
2021/11/23 05:55:12;;;;;;;31.65;29.45;;;0.90;91.60;;;;;;5073232;28;20284;-72
2021/11/23 05:57:39;;;;;;;34.20;31.67;;;0.90;92.30;;;;;;5074997;28;20280;-72
2021/11/23 06:00:08;;;;;;;32.20;30.00;;;0.90;91.80;;;;;;5070834;28;20317;-72
2021/11/23 06:02:35;;;;;;;33.58;31.17;;;1.00;92.00;;;;;;5071790;28;20630;-73
2021/11/23 06:05:03;;;;;;;31.92;29.65;;;0.90;91.80;;;;;;5072721;28;20284;-73
2021/11/23 06:07:32;;;;;;;33.53;30.98;;;0.90;92.30;;;;;;5070747;28;20635;-73
2021/11/23 06:09:59;;;;;;;33.78;31.48;;;0.90;93.00;;;;;;5089770;28;20611;-72
2021/11/23 06:12:29;;;;;;;34.83;32.15;;;0.90;92.50;;;;;;5082957;28;20328;-73
2021/11/23 06:14:56;;;;;;;34.53;31.63;;;0.90;92.10;;;;;;5076149;28;20291;-71
2021/11/23 06:17:23;;;;;;;33.53;31.08;;;0.90;91.90;;;;;;5071394;28;20314;-72
2021/11/23 06:19:50;;;;;;;32.03;29.88;;;0.80;92.30;;;;;;5075385;28;20197;-72
2021/11/23 06:22:19;;;;;;;34.20;31.70;;;0.70;92.00;;;;;;5077680;28;20539;-72
2021/11/23 06:24:46;;;;;;;1999.90;662.75;;;0.80;96.40;;;;;;5073113;28;20305;-72
2021/11/23 06:27:13;;;;;;;32.58;30.15;;;0.80;97.40;;;;;;5085017;28;20288;-72
2021/11/23 06:29:40;;;;;;;31.98;29.67;;;0.80;96.80;;;;;;5078900;28;20277;-72
2021/11/23 06:32:08;;;;;;;33.67;31.10;;;0.80;96.90;;;;;;5076576;28;20296;-71
2021/11/23 06:34:35;;;;;;;35.65;33.00;;;0.80;95.50;;;;;;5071679;28;20222;-71
2021/11/23 06:37:02;;;;;;;33.25;30.77;;;0.70;94.60;;;;;;5075399;28;20756;-71
2021/11/23 06:39:30;;;;;;;33.70;31.30;;;0.70;95.60;;;;;;5073243;28;20290;-74
2021/11/23 06:41:57;;;;;;;35.70;33.15;;;0.70;94.70;;;;;;5068552;28;20232;-72
2021/11/23 06:44:24;;;;;;;34.95;32.30;;;0.70;93.20;;;;;;5078105;28;20242;-72
2021/11/23 06:46:51;;;;;;;34.25;31.75;;;0.70;92.80;;;;;;5076644;28;20858;-72
2021/11/23 06:49:18;;;;;;;34.50;31.90;;;0.80;92.50;;;;;;5087352;28;20284;-72
2021/11/23 06:51:45;;;;;;;35.70;32.88;;;0.80;92.00;;;;;;5067379;28;20727;-74
2021/11/23 06:54:15;;;;;;;33.08;30.70;;;0.80;92.00;;;;;;5081264;28;20245;-73
2021/11/23 06:56:44;;;;;;;34.63;30.77;;;0.80;92.10;;;;;;5086384;28;20222;-73
2021/11/23 06:59:13;;;;;;;32.78;30.58;;;0.80;92.20;;;;;;5083627;28;20770;-72
2021/11/23 07:01:41;;;;;;;33.42;30.77;;;0.80;92.00;;;;;;5073421;28;20636;-73
2021/11/23 07:04:08;;;;;;;33.92;31.63;;;0.80;92.30;;;;;;5075714;28;20623;-73
2021/11/23 07:06:35;;;;;;;134.60;42.05;;;0.90;94.70;;;;;;5076098;28;20287;-73
2021/11/23 07:09:02;;;;;;;31.80;29.60;;;0.90;96.60;;;;;;5081487;28;20279;-73
2021/11/23 07:11:29;;;;;;;32.67;30.48;;;1.00;94.10;;;;;;5084329;28;20225;-73
2021/11/23 07:13:57;;;;;;;34.53;32.05;;;1.00;93.00;;;;;;5071659;28;20268;-73
2021/11/23 07:16:26;;;;;;;33.88;31.42;;;1.00;92.10;;;;;;5073035;28;20203;-73
2021/11/23 07:18:55;;;;;;;34.00;31.50;;;1.00;91.70;;;;;;5087373;28;20308;-73
2021/11/23 07:21:22;;;;;;;37.33;33.85;;;1.10;92.00;;;;;;5073984;28;20205;-73
2021/11/23 07:23:49;;;;;;;139.65;48.03;;;1.10;92.20;;;;;;5078247;28;20283;-73
2021/11/23 07:26:17;;;;;;;34.17;31.85;;;1.20;91.80;;;;;;5076277;28;20296;-74
2021/11/23 07:28:44;;;;;;;36.00;33.45;;;1.20;91.50;;;;;;5074400;28;20584;-73
2021/11/23 07:31:12;;;;;;;35.75;32.88;;;1.20;91.30;;;;;;5075414;28;20261;-74
2021/11/23 07:33:40;;;;;;;32.78;30.48;;;1.30;90.80;;;;;;5073663;28;20226;-73
2021/11/23 07:36:07;;;;;;;34.08;31.52;;;1.40;90.40;;;;;;5070133;28;20684;-73
2021/11/23 07:38:34;;;;;;;33.03;30.58;;;1.40;90.00;;;;;;5079645;28;20199;-73
2021/11/23 07:41:01;;;;;;;33.28;30.77;;;1.30;89.90;;;;;;5079227;28;20285;-73
2021/11/23 07:43:28;;;;;;;32.00;29.75;;;1.40;89.90;;;;;;5070967;28;20303;-73
2021/11/23 07:45:55;;;;;;;33.45;30.95;;;1.40;89.90;;;;;;5071793;28;20278;-74
2021/11/23 07:48:23;;;;;;;35.47;32.65;;;1.40;90.80;;;;;;5089685;28;20198;-74
2021/11/23 07:50:50;;;;;;;32.67;30.13;;;1.50;90.30;;;;;;5071292;28;20262;-74
2021/11/23 07:53:18;;;;;;;33.38;30.70;;;1.50;90.00;;;;;;5074135;28;20732;-74
2021/11/23 07:55:48;;;;;;;32.95;30.58;;;1.60;89.80;;;;;;5076347;28;20908;-74
2021/11/23 07:58:16;;;;;;;32.60;30.10;;;1.60;89.60;;;;;;5084122;28;20190;-74
2021/11/23 08:00:43;;;;;;;36.38;33.72;;;1.70;89.10;;;;;;5074588;28;20870;-74
2021/11/23 08:03:11;;;;;;;33.53;31.00;;;1.60;89.20;;;;;;5071507;28;20380;-74
2021/11/23 08:05:39;;;;;;;36.00;32.25;;;1.70;89.00;;;;;;5087747;28;20214;-74
2021/11/23 08:08:09;;;;;;;36.40;33.80;;;1.80;89.30;;;;;;5078786;28;20223;-74
2021/11/23 08:10:36;;;;;;;32.77;30.43;;;1.90;89.90;;;;;;5071137;28;20537;-74
2021/11/23 08:13:03;;;;;;;32.85;30.25;;;2.00;89.30;;;;;;5075768;28;20486;-71
2021/11/23 08:15:31;;;;;;;34.80;32.30;;;2.00;89.20;;;;;;5083132;28;20261;-71
2021/11/23 08:17:58;;;;;;;33.88;31.40;;;2.10;88.80;;;;;;5070905;28;20207;-72
2021/11/23 08:20:25;;;;;;;35.05;32.40;;;2.10;88.30;;;;;;5078463;28;20265;-72
2021/11/23 08:22:53;;;;;;;32.75;30.45;;;2.10;88.50;;;;;;5071347;28;20238;-71
2021/11/23 08:25:20;;;;;;;33.15;30.85;;;2.20;88.20;;;;;;5070698;28;20289;-72
2021/11/23 08:27:49;;;;;;;35.00;32.20;;;2.30;87.60;;;;;;5085119;28;20229;-71
2021/11/23 08:30:16;;;;;;;35.92;33.20;;;2.20;87.20;;;;;;5077426;28;20228;-72
2021/11/23 08:32:43;;;;;;;33.08;30.75;;;2.20;87.30;;;;;;5083798;28;20274;-72
2021/11/23 08:35:11;;;;;;;34.42;31.83;;;2.30;87.40;;;;;;5085183;28;20230;-72
2021/11/23 08:37:38;;;;;;;34.90;32.45;;;2.40;87.40;;;;;;5072291;28;20223;-72
2021/11/23 08:40:08;;;;;;;35.25;32.15;;;2.40;86.90;;;;;;5068858;28;20219;-74
2021/11/23 08:42:36;;;;;;;33.40;30.85;;;2.50;88.00;;;;;;5081803;28;20199;-71
2021/11/23 08:45:04;;;;;;;33.47;30.98;;;2.50;88.00;;;;;;5073857;28;20952;-71
2021/11/23 08:47:31;;;;;;;31.83;29.70;;;2.50;90.10;;;;;;5070965;28;20230;-71
2021/11/23 08:49:58;;;;;;;34.13;31.08;;;2.50;88.30;;;;;;5079400;28;20234;-71
2021/11/23 08:52:26;;;;;;;32.40;30.02;;;2.70;87.60;;;;;;5069588;28;20627;-70
2021/11/23 08:54:56;;;;;;;34.20;31.42;;;2.80;86.50;;;;;;5068973;28;20293;-71
2021/11/23 08:57:25;;;;;;;48.35;32.25;;;2.80;86.30;;;;;;5076300;28;20290;-71
2021/11/23 09:00:04;;;;;;;1999.90;313.33;;;2.90;86.20;;;;;;5071189;28;20232;-71
2021/11/23 09:02:31;;;;;;;32.08;29.77;;;2.90;87.10;;;;;;5071305;28;20660;-70
2021/11/23 09:04:58;;;;;;;30.23;28.13;;;2.90;86.80;;;;;;5078003;28;20242;-70
2021/11/23 09:07:26;;;;;;;79.47;34.45;;;2.90;91.70;;;;;;5075105;28;20288;-70
2021/11/23 09:09:53;;;;;;;34.53;32.08;;;2.90;89.10;;;;;;5075805;28;20278;-71
2021/11/23 09:12:20;;;;;;;34.50;31.90;;;3.10;87.10;;;;;;5080868;28;20227;-71
2021/11/23 09:14:48;;;;;;;32.50;30.40;;;3.00;85.60;;;;;;5068520;28;20302;-72
2021/11/23 09:17:15;;;;;;;32.63;30.38;;;3.10;85.30;;;;;;5074338;28;20295;-72
2021/11/23 09:19:43;;;;;;;30.65;28.45;;;3.20;84.50;;;;;;5069574;28;20634;-72
2021/11/23 09:22:11;;;;;;;30.98;28.63;;;3.10;84.80;;;;;;5078226;28;20673;-72
2021/11/23 09:24:38;;;;;;;33.63;31.33;;;3.00;82.40;;;;;;5072450;28;20793;-72
2021/11/23 09:27:05;;;;;;;32.97;30.65;;;2.90;82.30;;;;;;5075307;28;20732;-71
2021/11/23 09:29:32;;;;;;;32.85;30.52;;;3.10;82.70;;;;;;5074635;28;20285;-71
2021/11/23 09:32:01;;;;;;;33.30;30.92;;;3.00;81.60;;;;;;5069089;28;20211;-70
2021/11/23 09:34:28;;;;;;;30.63;28.52;;;3.00;81.80;;;;;;5071649;28;20238;-71
2021/11/23 09:36:57;;;;;;;33.03;30.83;;;2.90;81.40;;;;;;5073878;28;20199;-72
2021/11/23 09:39:24;;;;;;;33.03;30.73;;;2.90;81.50;;;;;;5081316;28;20290;-71
2021/11/23 09:41:52;;;;;;;31.05;29.05;;;3.00;81.10;;;;;;5074372;28;20843;-73
2021/11/23 09:44:19;;;;;;;32.42;30.42;;;3.00;80.60;;;;;;5072743;28;20212;-70
2021/11/23 09:46:47;;;;;;;33.05;30.95;;;3.00;80.90;;;;;;5070099;28;20199;-69
2021/11/23 09:49:15;;;;;;;31.23;29.10;;;3.10;80.90;;;;;;5080103;28;20708;-69
2021/11/23 09:51:44;;;;;;;33.47;30.95;;;3.20;80.30;;;;;;5073019;28;20191;-69
2021/11/23 09:54:12;;;;;;;32.75;30.55;;;3.30;80.20;;;;;;5075753;28;20231;-69
2021/11/23 09:56:43;;;;;;;32.97;30.90;;;3.30;80.50;;;;;;5068197;28;20661;-70
2021/11/23 09:59:10;;;;;;;34.70;32.40;;;3.40;80.20;;;;;;5069975;28;20908;-69
2021/11/23 10:01:51;;;;;;;32.42;30.13;;;3.60;79.90;;;;;;5069032;28;20341;-69
2021/11/23 10:04:21;;;;;;;32.25;30.10;;;3.70;79.70;;;;;;5069734;28;20218;-71
2021/11/23 10:06:57;;;;;;;33.45;31.35;;;3.70;78.60;;;;;;5065886;28;20206;-71
2021/11/23 10:09:34;;;;;;;32.58;30.38;;;3.80;78.20;;;;;;5072718;28;20593;-71
2021/11/23 10:12:16;;;;;;;33.55;31.15;;;3.80;78.50;;;;;;5083233;28;20576;-71
2021/11/23 10:14:58;;;;;;;33.60;31.25;;;3.70;78.70;;;;;;5068037;28;20754;-71
2021/11/23 10:17:26;;;;;;;31.77;29.67;;;3.70;79.30;;;;;;5067214;28;20234;-71
2021/11/23 10:19:55;;;;;;;32.85;30.65;;;3.80;80.40;;;;;;5074451;28;20210;-71
2021/11/23 10:22:31;;;;;;;33.58;31.27;;;3.90;82.10;;;;;;5080013;28;20203;-71
2021/11/23 10:25:01;;;;;;;31.70;29.65;;;4.00;80.50;;;;;;5080892;28;20192;-71
2021/11/23 10:27:28;;;;;;;31.95;29.80;;;4.00;78.30;;;;;;5079041;28;20206;-71
2021/11/23 10:29:58;;;;;;;32.88;30.58;;;4.00;78.00;;;;;;5067866;28;20199;-69
2021/11/23 10:32:25;;;;;;;34.65;32.45;;;4.10;77.60;;;;;;5079912;28;20650;-70
2021/11/23 10:34:54;;;;;;;34.13;32.03;;;4.30;77.00;;;;;;5082240;28;20319;-70
2021/11/23 10:37:32;;;;;;;33.03;30.88;;;4.20;76.80;;;;;;5071468;28;20200;-71
2021/11/23 10:40:17;;;;;;;33.05;30.80;;;4.30;76.70;;;;;;5068679;28;20226;-70
2021/11/23 10:42:45;;;;;;;34.15;31.75;;;4.30;76.20;;;;;;5065605;28;20223;-70
2021/11/23 10:45:13;;;;;;;32.47;30.15;;;4.40;76.50;;;;;;5077706;28;20195;-71
2021/11/23 10:47:41;;;;;;;32.20;29.90;;;4.40;76.00;;;;;;5071170;28;20227;-71
2021/11/23 10:50:12;;;;;;;32.25;30.25;;;4.50;76.40;;;;;;5078204;28;20200;-71
2021/11/23 10:52:41;;;;;;;32.83;30.70;;;4.50;76.80;;;;;;5068048;28;20780;-71
2021/11/23 10:55:25;;;;;;;32.08;30.13;;;4.70;75.80;;;;;;5075495;28;20247;-71
2021/11/23 10:57:54;;;;;;;32.08;30.08;;;4.70;75.10;;;;;;5082344;28;20684;-71
2021/11/23 11:00:22;;;;;;;30.52;28.63;;;4.70;79.50;;;;;;5072427;28;20309;-71
2021/11/23 11:02:54;;;;;;;30.38;28.48;;;4.70;79.30;;;;;;5071447;28;20283;-71
2021/11/23 11:05:23;;;;;;;32.95;30.67;;;4.90;78.00;;;;;;5069897;28;20200;-71
2021/11/23 11:07:53;;;;;;;30.20;28.05;;;5.00;76.20;;;;;;5076062;28;20294;-71
2021/11/23 11:10:20;;;;;;;31.35;29.05;;;5.10;76.50;;;;;;5080194;28;20740;-71
2021/11/23 11:12:48;;;;;;;32.05;29.95;;;5.20;74.30;;;;;;5081060;28;20290;-71
2021/11/23 11:15:17;;;;;;;32.53;30.42;;;5.20;74.80;;;;;;5072481;28;20255;-71
2021/11/23 11:17:46;;;;;;;31.90;29.83;;;5.10;74.90;;;;;;5073056;28;20611;-71
2021/11/23 11:20:13;;;;;;;32.60;30.60;;;5.20;73.80;;;;;;5075553;28;20275;-71
2021/11/23 11:22:54;;;;;;;30.58;28.67;;;5.30;76.40;;;;;;5076613;28;20226;-71
2021/11/23 11:25:25;;;;;;;30.65;28.55;;;5.40;72.70;;;;;;5075293;28;20199;-71
2021/11/23 11:27:52;;;;;;;31.63;29.58;;;5.30;72.10;;;;;;5082226;28;20215;-71
2021/11/23 11:30:23;;;;;;;31.60;29.23;;;5.30;72.80;;;;;;5077823;28;20700;-71
2021/11/23 11:32:51;;;;;;;30.65;28.67;;;5.40;72.30;;;;;;5088807;28;20248;-71
2021/11/23 11:35:24;;;;;;;30.52;28.58;;;5.40;72.70;;;;;;5079734;28;20318;-71
2021/11/23 11:37:53;;;;;;;31.17;29.17;;;5.50;72.20;;;;;;5077620;28;20283;-71
2021/11/23 11:40:26;;;;;;;32.35;30.25;;;5.40;71.50;;;;;;5082798;28;20750;-71
2021/11/23 11:43:06;;;;;;;31.08;29.10;;;5.30;71.60;;;;;;5088282;28;20284;-71
2021/11/23 11:45:45;;;;;;;30.95;29.00;;;5.30;72.20;;;;;;5077442;28;20282;-71
2021/11/23 11:48:50;;;;;;;29.02;27.40;;;5.30;71.50;;;;;;5077281;28;20199;-71
2021/11/23 11:51:26;;;;;;;30.33;28.30;;;5.40;72.90;;;;;;5071063;28;20210;-71
2021/11/23 11:53:59;;;;;;;29.88;28.05;;;5.50;72.50;;;;;;5071522;28;20211;-71
2021/11/23 11:56:47;;;;;;;31.10;29.30;;;5.60;71.50;;;;;;5076748;28;20192;-71
2021/11/23 11:59:32;;;;;;;30.13;28.33;;;5.80;71.50;;;;;;5072459;28;20286;-71
2021/11/23 12:02:03;;;;;;;29.45;27.60;;;5.90;72.50;;;;;;5070768;28;20249;-71
2021/11/23 12:04:33;;;;;;;30.90;29.00;;;5.90;71.50;;;;;;5070204;28;20224;-71
2021/11/23 12:07:10;;;;;;;29.70;27.80;;;5.90;73.30;;;;;;5075896;28;20238;-71
2021/11/23 12:09:42;;;;;;;30.70;28.60;;;6.00;70.60;;;;;;5069345;28;20195;-71
2021/11/23 12:12:53;;;;;;;29.65;27.65;;;6.10;71.30;;;;;;5080224;28;20248;-70
2021/11/23 12:15:52;;;;;;;30.10;28.30;;;6.00;71.10;;;;;;5069493;28;20215;-70
2021/11/23 12:18:31;;;;;;;29.80;28.00;;;6.10;69.80;;;;;;5061068;28;20228;-73
2021/11/23 12:21:04;;;;;;;29.05;27.35;;;6.00;69.60;;;;;;5082317;28;20229;-71
2021/11/23 12:23:39;;;;;;;29.75;27.85;;;6.00;69.10;;;;;;5085297;28;20273;-71
2021/11/23 12:26:14;;;;;;;28.65;26.95;;;6.00;68.70;;;;;;5069453;28;20247;-71
2021/11/23 12:28:51;;;;;;;28.10;26.40;;;6.20;68.50;;;;;;5069229;28;20231;-70
2021/11/23 12:31:20;;;;;;;29.13;27.45;;;6.30;68.70;;;;;;5077591;28;20195;-71
2021/11/23 12:33:49;;;;;;;28.60;27.00;;;6.40;68.20;;;;;;5082733;28;20219;-71
2021/11/23 12:36:20;;;;;;;28.02;26.15;;;6.60;68.20;;;;;;5074291;28;20302;-70
2021/11/23 12:38:48;;;;;;;29.15;27.35;;;6.60;67.10;;;;;;5079482;28;20257;-70
2021/11/23 12:41:19;;;;;;;29.10;27.08;;;6.60;66.00;;;;;;5079323;28;20310;-70
2021/11/23 12:43:48;;;;;;;28.35;26.63;;;6.40;65.80;;;;;;5078573;28;20298;-70